Time;durP1;ratioP1;P1;durP2;ratioP2;P2;SDS_P1;SDS_P2;PMS_P1;PMS_P2;Temp;Humidity;BMP_temperature;BMP_pressure;BME280_temperature;BME280_humidity;BME280_pressure;Samples;Min_cycle;Max_cycle;Signal;HPM_P1;HPM_P2
2023/01/16 00:00:51;;;;;;;9.23;6.80;;;;;;;;;;5071981;28;20613;-74
2023/01/16 00:03:16;;;;;;;9.40;6.90;;;;;;;;;;5073349;28;20180;-74
2023/01/16 00:05:42;;;;;;;9.33;6.50;;;;;;;;;;5070369;28;20224;-73
2023/01/16 00:08:07;;;;;;;9.67;6.80;;;;;;;;;;5070798;28;20193;-73
2023/01/16 00:10:32;;;;;;;11.43;7.73;;;;;;;;;;5073687;28;20225;-73
2023/01/16 00:12:57;;;;;;;10.83;7.27;;;;;;;;;;5071189;28;20210;-74
2023/01/16 00:15:23;;;;;;;10.00;7.27;;;;;;;;;;5057553;28;20295;-73
2023/01/16 00:17:49;;;;;;;10.53;6.60;;;;;;;;;;5070677;28;20665;-74
2023/01/16 00:20:15;;;;;;;9.40;6.30;;;;;;;;;;5058045;28;20196;-73
2023/01/16 00:22:40;;;;;;;10.10;6.97;;;;;;;;;;5072366;28;20702;-73
2023/01/16 00:25:05;;;;;;;11.47;7.30;;;;;;;;;;5071331;28;21224;-74
2023/01/16 00:27:30;;;;;;;11.13;6.90;;;;;;;;;;5070794;28;20235;-73
2023/01/16 00:29:56;;;;;;;11.60;7.77;;;;;;;;;;5069278;28;20217;-74
2023/01/16 00:32:21;;;;;;;10.93;7.40;;;;;;;;;;5051602;28;20184;-74
2023/01/16 00:34:46;;;;;;;12.17;7.50;;;;;;;;;;5080349;28;20256;-74
2023/01/16 00:37:11;;;;;;;11.47;7.43;;;;;;;;;;5059190;28;20268;-73
2023/01/16 00:39:39;;;;;;;11.27;8.30;;;;;;;;;;5068891;28;20251;-74
2023/01/16 00:42:04;;;;;;;11.90;8.77;;;;;;;;;;5054080;28;20697;-73
2023/01/16 00:44:29;;;;;;;11.93;8.30;;;;;;;;;;5069513;28;20197;-73
2023/01/16 00:46:55;;;;;;;12.67;7.63;;;;;;;;;;5076681;28;20730;-73
2023/01/16 00:49:20;;;;;;;11.43;8.23;;;;;;;;;;5070351;28;20454;-73
2023/01/16 00:51:45;;;;;;;10.53;7.37;;;;;;;;;;5071831;28;20270;-73
2023/01/16 00:54:10;;;;;;;11.13;7.20;;;;;;;;;;5066268;28;20173;-74
2023/01/16 00:56:35;;;;;;;14.47;6.43;;;;;;;;;;5071655;28;20192;-73
2023/01/16 00:59:00;;;;;;;9.20;5.97;;;;;;;;;;5070193;28;20216;-73
2023/01/16 01:01:26;;;;;;;7.27;5.53;;;;;;;;;;5097362;28;20204;-74
2023/01/16 01:03:51;;;;;;;9.33;5.43;;;;;;;;;;5080660;28;20204;-74
2023/01/16 01:06:16;;;;;;;10.33;6.37;;;;;;;;;;5064243;28;20181;-73
2023/01/16 01:08:41;;;;;;;13.47;5.37;;;;;;;;;;5068217;28;20235;-73
2023/01/16 01:11:11;;;;;;;10.83;5.30;;;;;;;;;;5061908;28;20180;-75
2023/01/16 01:13:37;;;;;;;8.03;4.80;;;;;;;;;;5072887;28;20184;-75
2023/01/16 01:16:02;;;;;;;11.80;6.07;;;;;;;;;;5057826;28;20230;-73
2023/01/16 01:18:28;;;;;;;7.50;5.40;;;;;;;;;;5059309;28;20209;-74
2023/01/16 01:20:53;;;;;;;9.77;5.47;;;;;;;;;;5070778;28;20708;-73
2023/01/16 01:23:18;;;;;;;9.57;5.80;;;;;;;;;;5054173;28;20184;-74
2023/01/16 01:25:43;;;;;;;10.80;6.70;;;;;;;;;;5069254;28;20264;-74
2023/01/16 01:28:08;;;;;;;11.03;6.27;;;;;;;;;;5073059;28;20254;-74
2023/01/16 01:30:34;;;;;;;8.50;6.20;;;;;;;;;;5072816;28;20168;-74
2023/01/16 01:32:59;;;;;;;8.77;6.03;;;;;;;;;;5070280;28;20621;-74
2023/01/16 01:35:24;;;;;;;11.77;6.63;;;;;;;;;;5071672;28;20596;-74
2023/01/16 01:37:50;;;;;;;8.10;5.53;;;;;;;;;;5050997;28;20177;-74
2023/01/16 01:40:15;;;;;;;11.50;6.27;;;;;;;;;;5072031;28;20242;-74
2023/01/16 01:42:44;;;;;;;7.37;4.90;;;;;;;;;;5067908;28;20177;-74
2023/01/16 01:45:09;;;;;;;10.77;5.90;;;;;;;;;;5050401;28;20551;-74
2023/01/16 01:47:37;;;;;;;8.40;5.33;;;;;;;;;;5070405;28;20206;-74
2023/01/16 01:50:04;;;;;;;9.43;5.67;;;;;;;;;;5074705;28;20207;-73
2023/01/16 01:52:29;;;;;;;9.47;5.03;;;;;;;;;;5070564;28;20208;-74
2023/01/16 01:54:58;;;;;;;8.87;5.37;;;;;;;;;;5056190;28;20197;-74
2023/01/16 01:57:28;;;;;;;9.17;5.20;;;;;;;;;;5073137;28;20660;-74
2023/01/16 02:00:06;;;;;;;9.73;4.53;;;;;;;;;;5069589;28;20689;-74
2023/01/16 02:02:33;;;;;;;7.07;5.60;;;;;;;;;;5071689;28;20585;-74
2023/01/16 02:04:58;;;;;;;7.43;6.20;;;;;;;;;;5069858;28;20196;-74
2023/01/16 02:07:25;;;;;;;10.83;4.60;;;;;;;;;;5069792;28;20701;-74
2023/01/16 02:10:00;;;;;;;18.00;6.50;;;;;;;;;;5067656;28;20195;-74
2023/01/16 02:12:26;;;;;;;11.10;4.63;;;;;;;;;;5072250;28;20532;-74
2023/01/16 02:14:51;;;;;;;9.30;5.97;;;;;;;;;;5074043;28;20180;-74
2023/01/16 02:20:15;;;;;;;9.80;4.60;;;;;;;;;;5077064;28;22365;-74
2023/01/16 02:22:43;;;;;;;9.07;4.67;;;;;;;;;;5060599;28;20184;-74
2023/01/16 02:25:09;;;;;;;10.93;5.07;;;;;;;;;;5065908;28;20549;-74
2023/01/16 02:27:34;;;;;;;8.57;4.87;;;;;;;;;;5068744;28;20183;-74
2023/01/16 02:30:18;;;;;;;6.07;4.40;;;;;;;;;;5055999;28;20220;-74
2023/01/16 02:32:55;;;;;;;5.60;4.00;;;;;;;;;;5056535;28;20191;-74
2023/01/16 02:35:27;;;;;;;10.07;3.70;;;;;;;;;;5059690;28;20558;-73
2023/01/16 02:37:52;;;;;;;11.07;4.60;;;;;;;;;;5068722;28;20204;-73
2023/01/16 02:40:36;;;;;;;6.63;3.80;;;;;;;;;;5072489;28;20357;-73
2023/01/16 02:43:04;;;;;;;7.13;3.70;;;;;;;;;;5073628;28;20271;-73
2023/01/16 02:45:29;;;;;;;6.20;3.30;;;;;;;;;;5069413;28;20196;-73
2023/01/16 02:48:01;;;;;;;6.53;3.30;;;;;;;;;;5073030;28;20735;-73
2023/01/16 02:50:44;;;;;;;5.50;3.00;;;;;;;;;;5068033;28;20180;-73
2023/01/16 02:53:32;;;;;;;7.47;2.97;;;;;;;;;;5066792;28;20184;-73
2023/01/16 02:56:03;;;;;;;8.17;3.03;;;;;;;;;;5055215;28;20181;-75
2023/01/16 02:58:29;;;;;;;7.90;2.90;;;;;;;;;;5059070;28;20222;-73
2023/01/16 03:00:55;;;;;;;11.07;2.70;;;;;;;;;;5066513;28;20215;-73
2023/01/16 03:03:32;;;;;;;5.53;2.13;;;;;;;;;;5071022;28;20210;-73
2023/01/16 03:06:02;;;;;;;3.43;1.60;;;;;;;;;;5074017;28;20646;-75
2023/01/16 03:08:48;;;;;;;5.03;2.10;;;;;;;;;;5066755;28;20263;-74
2023/01/16 03:11:24;;;;;;;3.43;2.00;;;;;;;;;;5069158;28;20189;-73
2023/01/16 03:14:01;;;;;;;5.23;1.43;;;;;;;;;;5069683;28;20184;-73
2023/01/16 03:16:44;;;;;;;4.93;2.10;;;;;;;;;;5067440;28;20181;-73
2023/01/16 03:19:28;;;;;;;1.97;1.37;;;;;;;;;;5067222;28;20200;-73
2023/01/16 03:21:53;;;;;;;3.17;1.50;;;;;;;;;;5080366;28;20475;-73
2023/01/16 03:24:34;;;;;;;2.23;1.30;;;;;;;;;;5062252;28;20184;-73
2023/01/16 03:27:05;;;;;;;2.60;1.70;;;;;;;;;;5075613;28;20173;-73
2023/01/16 03:29:30;;;;;;;5.00;2.67;;;;;;;;;;5073822;28;20284;-74
2023/01/16 03:31:57;;;;;;;3.77;1.37;;;;;;;;;;5073976;28;20581;-73
2023/01/16 03:34:48;;;;;;;5.33;1.73;;;;;;;;;;5070677;28;20204;-74
2023/01/16 03:37:17;;;;;;;2.67;1.47;;;;;;;;;;5065447;28;20676;-74
2023/01/16 03:39:46;;;;;;;5.23;2.73;;;;;;;;;;5073681;28;20264;-75
2023/01/16 03:42:14;;;;;;;5.13;2.00;;;;;;;;;;5071312;28;20204;-74
2023/01/16 03:44:41;;;;;;;4.73;1.60;;;;;;;;;;5073476;28;20199;-73
2023/01/16 03:47:10;;;;;;;6.37;1.50;;;;;;;;;;5074351;28;20180;-73
2023/01/16 03:49:40;;;;;;;7.83;1.83;;;;;;;;;;5073846;28;20371;-73
2023/01/16 03:52:06;;;;;;;3.53;2.60;;;;;;;;;;5074452;28;20177;-74
2023/01/16 03:54:54;;;;;;;5.40;1.50;;;;;;;;;;5084969;28;20271;-74
2023/01/16 03:57:25;;;;;;;5.43;1.87;;;;;;;;;;5079835;28;20176;-75
2023/01/16 03:59:52;;;;;;;5.70;1.30;;;;;;;;;;5075666;28;20224;-74
2023/01/16 04:02:20;;;;;;;4.53;1.40;;;;;;;;;;5085534;28;20191;-74
2023/01/16 04:05:05;;;;;;;4.70;1.37;;;;;;;;;;5065616;28;20641;-74
2023/01/16 04:07:37;;;;;;;5.33;2.20;;;;;;;;;;5079359;28;20184;-74
2023/01/16 04:10:08;;;;;;;4.37;1.37;;;;;;;;;;5077962;28;20569;-74
2023/01/16 04:12:36;;;;;;;6.10;1.70;;;;;;;;;;5083723;28;20184;-74
2023/01/16 04:15:03;;;;;;;2.97;1.83;;;;;;;;;;5086413;28;20180;-74
2023/01/16 04:17:29;;;;;;;4.17;1.70;;;;;;;;;;5085012;28;20188;-74
2023/01/16 04:19:54;;;;;;;6.13;2.27;;;;;;;;;;5087514;28;20220;-74
2023/01/16 04:22:22;;;;;;;4.63;1.87;;;;;;;;;;5067092;28;20188;-74
2023/01/16 04:24:49;;;;;;;2.00;1.60;;;;;;;;;;5094647;28;20173;-74
2023/01/16 04:27:14;;;;;;;5.10;1.57;;;;;;;;;;5079584;28;20176;-74
2023/01/16 04:29:39;;;;;;;2.73;1.67;;;;;;;;;;5090876;28;20199;-75
2023/01/16 04:32:05;;;;;;;3.50;1.53;;;;;;;;;;5081437;28;20638;-74
2023/01/16 04:34:30;;;;;;;7.13;2.20;;;;;;;;;;5080152;28;20215;-74
2023/01/16 04:36:55;;;;;;;7.53;2.40;;;;;;;;;;5079172;28;20257;-74
2023/01/16 04:39:20;;;;;;;3.77;1.93;;;;;;;;;;5091564;28;20207;-74
2023/01/16 04:41:50;;;;;;;3.60;1.97;;;;;;;;;;5065398;28;20262;-74
2023/01/16 04:44:15;;;;;;;3.33;1.70;;;;;;;;;;5087837;28;20192;-73
2023/01/16 04:46:40;;;;;;;6.10;1.77;;;;;;;;;;5081503;28;20181;-74
2023/01/16 04:49:06;;;;;;;7.07;1.30;;;;;;;;;;5066433;28;20193;-74
2023/01/16 04:51:31;;;;;;;2.27;1.30;;;;;;;;;;5087512;28;20242;-73
2023/01/16 04:53:56;;;;;;;3.40;1.57;;;;;;;;;;5079148;28;20184;-73
2023/01/16 04:56:22;;;;;;;3.40;1.07;;;;;;;;;;5088013;28;20210;-73
2023/01/16 04:58:47;;;;;;;5.33;1.40;;;;;;;;;;5114778;22;20668;-78
2023/01/16 05:01:12;;;;;;;6.20;1.37;;;;;;;;;;5114497;28;20571;-78
2023/01/16 05:03:37;;;;;;;3.10;1.20;;;;;;;;;;5098685;28;20176;-77
2023/01/16 05:06:03;;;;;;;3.67;1.33;;;;;;;;;;5105829;28;20318;-77
2023/01/16 05:08:28;;;;;;;4.57;1.20;;;;;;;;;;5105300;28;20684;-78
2023/01/16 05:10:54;;;;;;;4.13;1.20;;;;;;;;;;5088737;28;20315;-78
2023/01/16 05:13:19;;;;;;;7.63;1.80;;;;;;;;;;5091313;28;20729;-78
2023/01/16 05:15:44;;;;;;;3.60;1.40;;;;;;;;;;5073528;28;20689;-79
2023/01/16 05:18:11;;;;;;;8.13;1.43;;;;;;;;;;5082914;28;20266;-79
2023/01/16 05:20:36;;;;;;;3.10;1.40;;;;;;;;;;5084509;28;20665;-77
2023/01/16 05:23:02;;;;;;;1.80;1.20;;;;;;;;;;5084334;28;20176;-77
2023/01/16 05:25:27;;;;;;;3.20;1.50;;;;;;;;;;5072176;28;20181;-78
2023/01/16 05:27:52;;;;;;;4.20;1.67;;;;;;;;;;5073000;28;20173;-77
2023/01/16 05:30:17;;;;;;;3.67;1.60;;;;;;;;;;5076437;28;20192;-77
2023/01/16 05:32:43;;;;;;;6.57;1.83;;;;;;;;;;5094005;28;20177;-78
2023/01/16 05:35:09;;;;;;;3.73;1.17;;;;;;;;;;5085103;28;20172;-78
2023/01/16 05:37:34;;;;;;;5.83;2.67;;;;;;;;;;5087213;28;20622;-76
2023/01/16 05:39:59;;;;;;;5.47;2.30;;;;;;;;;;5072738;28;20206;-77
2023/01/16 05:42:24;;;;;;;7.30;1.53;;;;;;;;;;5072235;28;20189;-79
2023/01/16 05:44:51;;;;;;;3.57;1.47;;;;;;;;;;5091363;28;20260;-77
2023/01/16 05:47:17;;;;;;;3.43;1.17;;;;;;;;;;5065500;28;20562;-77
2023/01/16 05:49:42;;;;;;;4.63;2.00;;;;;;;;;;5064029;28;20197;-76
2023/01/16 05:52:07;;;;;;;3.87;1.83;;;;;;;;;;5075501;28;20522;-78
2023/01/16 05:54:32;;;;;;;5.93;1.60;;;;;;;;;;5072777;28;20176;-77
2023/01/16 05:56:58;;;;;;;8.03;1.93;;;;;;;;;;5056433;28;20187;-78
2023/01/16 05:59:23;;;;;;;4.10;1.87;;;;;;;;;;5076030;28;20686;-78
2023/01/16 06:01:48;;;;;;;4.23;1.30;;;;;;;;;;5073205;28;20212;-79
2023/01/16 06:04:13;;;;;;;7.03;1.50;;;;;;;;;;5057355;28;20180;-78
2023/01/16 06:06:38;;;;;;;4.50;1.67;;;;;;;;;;5083618;28;20181;-76
2023/01/16 06:09:04;;;;;;;6.27;1.47;;;;;;;;;;5053212;28;20272;-77
2023/01/16 06:11:29;;;;;;;5.57;1.60;;;;;;;;;;5076590;28;20173;-77
2023/01/16 06:13:55;;;;;;;2.70;1.30;;;;;;;;;;5087656;28;20184;-77
2023/01/16 06:16:22;;;;;;;5.00;1.67;;;;;;;;;;5053445;28;20173;-77
2023/01/16 06:18:47;;;;;;;5.80;1.70;;;;;;;;;;5056395;28;20234;-76
2023/01/16 06:21:13;;;;;;;5.80;1.83;;;;;;;;;;5071833;28;20201;-76
2023/01/16 06:23:38;;;;;;;2.47;1.50;;;;;;;;;;5062848;28;20180;-76
2023/01/16 06:26:05;;;;;;;10.33;2.00;;;;;;;;;;5078355;28;20230;-77
2023/01/16 06:28:30;;;;;;;7.60;2.03;;;;;;;;;;5073729;28;20200;-78
2023/01/16 06:30:55;;;;;;;3.63;1.50;;;;;;;;;;5052948;28;20235;-76
2023/01/16 06:33:21;;;;;;;2.30;1.30;;;;;;;;;;5076741;28;20173;-77
2023/01/16 06:35:46;;;;;;;7.80;1.70;;;;;;;;;;5063095;28;20575;-76
2023/01/16 06:38:11;;;;;;;3.03;1.37;;;;;;;;;;5054714;28;20191;-76
2023/01/16 06:40:37;;;;;;;3.93;1.53;;;;;;;;;;5073630;28;20223;-77
2023/01/16 06:43:02;;;;;;;8.37;1.83;;;;;;;;;;5075384;28;20244;-76
2023/01/16 06:45:27;;;;;;;3.60;1.47;;;;;;;;;;5070692;28;20176;-77
2023/01/16 06:47:53;;;;;;;3.93;1.80;;;;;;;;;;5073172;28;20672;-76
2023/01/16 06:50:18;;;;;;;4.53;1.40;;;;;;;;;;5075231;28;20737;-77
2023/01/16 06:52:43;;;;;;;3.03;1.87;;;;;;;;;;5075121;28;20180;-77
2023/01/16 06:55:08;;;;;;;2.53;2.20;;;;;;;;;;5078422;28;20182;-76
2023/01/16 06:57:35;;;;;;;8.87;1.73;;;;;;;;;;5087778;28;20176;-78
2023/01/16 07:00:00;;;;;;;6.60;2.10;;;;;;;;;;5094030;28;20230;-78
2023/01/16 07:02:25;;;;;;;8.97;1.50;;;;;;;;;;5069739;28;20637;-78
2023/01/16 07:04:51;;;;;;;5.33;1.50;;;;;;;;;;5095855;28;20221;-77
2023/01/16 07:07:16;;;;;;;4.70;1.50;;;;;;;;;;5077408;28;20319;-78
2023/01/16 07:09:41;;;;;;;2.37;1.10;;;;;;;;;;5077076;28;20207;-78
2023/01/16 07:12:06;;;;;;;4.30;1.20;;;;;;;;;;5094086;28;20182;-79
2023/01/16 07:22:45;;;;;;;2.37;1.30;;;;;;;;;;5092457;28;20779;-77
2023/01/16 07:25:14;;;;;;;5.20;1.40;;;;;;;;;;5095087;28;20657;-77
2023/01/16 07:27:40;;;;;;;4.70;1.27;;;;;;;;;;5070722;28;20245;-77
2023/01/16 07:30:07;;;;;;;5.17;1.10;;;;;;;;;;5094168;28;20188;-78
2023/01/16 07:32:32;;;;;;;1.87;0.93;;;;;;;;;;5097082;28;20187;-77
2023/01/16 07:34:57;;;;;;;1.43;0.90;;;;;;;;;;5093652;28;20176;-77
2023/01/16 07:37:22;;;;;;;3.37;1.03;;;;;;;;;;5094295;28;20173;-77
2023/01/16 07:39:47;;;;;;;5.83;1.30;;;;;;;;;;5083432;28;20256;-77
2023/01/16 07:42:13;;;;;;;5.13;1.57;;;;;;;;;;5098605;28;20294;-77
2023/01/16 07:44:38;;;;;;;1.80;0.80;;;;;;;;;;5082955;28;20579;-77
2023/01/16 07:47:03;;;;;;;4.83;1.83;;;;;;;;;;5082416;28;20192;-77
2023/01/16 07:49:28;;;;;;;5.57;2.20;;;;;;;;;;5100953;28;20192;-76
2023/01/16 07:51:53;;;;;;;1.70;0.90;;;;;;;;;;5096576;28;20184;-77
2023/01/16 07:54:21;;;;;;;2.43;1.00;;;;;;;;;;5078400;28;20180;-78
2023/01/16 07:56:46;;;;;;;2.23;1.00;;;;;;;;;;5100104;28;20267;-79
2023/01/16 07:59:11;;;;;;;2.00;0.83;;;;;;;;;;5098319;28;20243;-76
2023/01/16 08:01:36;;;;;;;4.60;1.20;;;;;;;;;;5077927;28;20287;-76
2023/01/16 08:04:02;;;;;;;1.80;1.03;;;;;;;;;;5077440;28;20175;-76
2023/01/16 08:06:27;;;;;;;1.97;0.90;;;;;;;;;;5076867;28;20176;-77
2023/01/16 08:08:52;;;;;;;2.27;0.97;;;;;;;;;;5077745;28;20197;-77
2023/01/16 08:11:35;;;;;;;2.40;0.90;;;;;;;;;;5089993;28;20179;-77
2023/01/16 08:14:01;;;;;;;3.93;0.83;;;;;;;;;;5096047;28;20574;-78
2023/01/16 08:16:27;;;;;;;2.67;0.90;;;;;;;;;;5094593;28;20259;-77
2023/01/16 08:18:52;;;;;;;1.53;0.97;;;;;;;;;;5072734;28;20678;-77
2023/01/16 08:21:17;;;;;;;3.10;0.90;;;;;;;;;;5091346;28;20283;-77
2023/01/16 08:23:43;;;;;;;4.23;0.93;;;;;;;;;;5093779;28;20199;-76
2023/01/16 08:26:08;;;;;;;5.23;0.80;;;;;;;;;;5089942;28;20216;-78
2023/01/16 08:28:33;;;;;;;2.33;1.17;;;;;;;;;;5090805;28;20252;-76
2023/01/16 08:31:07;;;;;;;3.80;1.07;;;;;;;;;;5087426;28;20593;-78
2023/01/16 08:33:33;;;;;;;1.97;1.43;;;;;;;;;;5089258;28;20180;-76
2023/01/16 08:35:59;;;;;;;3.00;1.53;;;;;;;;;;5090645;28;20188;-78
2023/01/16 08:38:24;;;;;;;2.00;0.90;;;;;;;;;;5068316;28;20597;-77
2023/01/16 08:40:49;;;;;;;1.73;1.10;;;;;;;;;;5074490;28;20204;-77
2023/01/16 08:51:47;;;;;;;4.93;1.53;;;;;;;;;;5010332;28;20614;-78
2023/01/16 08:54:12;;;;;;;2.37;1.70;;;;;;;;;;5047295;28;20188;-80
2023/01/16 08:56:42;;;;;;;4.37;1.60;;;;;;;;;;5069429;28;20184;-77
2023/01/16 08:59:07;;;;;;;5.73;1.93;;;;;;;;;;5085246;28;20285;-76
2023/01/16 09:01:32;;;;;;;2.80;1.63;;;;;;;;;;5088853;28;20261;-77
2023/01/16 09:03:58;;;;;;;4.07;2.07;;;;;;;;;;5074775;28;20176;-77
2023/01/16 09:06:24;;;;;;;4.43;2.00;;;;;;;;;;5090901;28;20660;-77
2023/01/16 09:08:49;;;;;;;5.57;2.40;;;;;;;;;;5072149;28;20200;-77
2023/01/16 09:14:00;;;;;;;4.67;1.97;;;;;;;;;;5087644;28;20295;-77
2023/01/16 09:16:25;;;;;;;3.33;2.00;;;;;;;;;;5090865;28;20254;-77
2023/01/16 09:18:51;;;;;;;5.80;1.80;;;;;;;;;;5091944;28;20719;-78
2023/01/16 09:21:18;;;;;;;2.67;2.20;;;;;;;;;;5094642;28;20204;-77
2023/01/16 09:23:45;;;;;;;3.60;1.60;;;;;;;;;;5093373;28;20201;-77
2023/01/16 09:26:10;;;;;;;2.90;1.77;;;;;;;;;;5097381;28;20207;-77
2023/01/16 09:28:35;;;;;;;4.90;2.17;;;;;;;;;;5095370;28;20191;-77
2023/01/16 09:31:01;;;;;;;2.13;1.87;;;;;;;;;;5071039;28;20263;-77
2023/01/16 09:33:26;;;;;;;3.60;1.90;;;;;;;;;;5085286;28;20235;-79
2023/01/16 09:35:51;;;;;;;1.90;1.30;;;;;;;;;;5091385;28;20192;-77
2023/01/16 09:38:16;;;;;;;3.63;2.23;;;;;;;;;;5067711;28;20227;-79
2023/01/16 09:40:49;;;;;;;2.20;1.80;;;;;;;;;;5093583;28;20575;-77
2023/01/16 09:43:36;;;;;;;3.27;2.47;;;;;;;;;;5094876;28;20259;-77
2023/01/16 09:46:21;;;;;;;3.30;2.00;;;;;;;;;;5093978;28;20676;-77
2023/01/16 09:48:58;;;;;;;3.23;1.80;;;;;;;;;;5079389;28;20212;-78
2023/01/16 09:51:31;;;;;;;3.03;1.53;;;;;;;;;;5089739;28;20188;-78
2023/01/16 09:59:34;;;;;;;2.23;1.40;;;;;;;;;;5079368;28;20249;-77
2023/01/16 10:02:09;;;;;;;1.63;1.17;;;;;;;;;;5072741;28;20294;-76
2023/01/16 10:04:36;;;;;;;3.40;1.40;;;;;;;;;;5092061;28;20203;-76
2023/01/16 10:07:20;;;;;;;2.07;1.30;;;;;;;;;;5072955;28;20180;-77
2023/01/16 10:09:54;;;;;;;2.20;1.20;;;;;;;;;;5070201;28;20690;-77
2023/01/16 10:12:21;;;;;;;1.57;0.83;;;;;;;;;;5086490;28;20262;-77
2023/01/16 10:14:58;;;;;;;1.00;0.63;;;;;;;;;;5086169;28;20206;-78
2023/01/16 10:17:35;;;;;;;1.43;0.90;;;;;;;;;;5091415;28;20210;-77
2023/01/16 10:20:19;;;;;;;4.77;1.83;;;;;;;;;;5091525;28;20203;-78
2023/01/16 10:22:44;;;;;;;1.13;0.90;;;;;;;;;;5091575;28;20210;-75
2023/01/16 10:25:24;;;;;;;1.07;0.80;;;;;;;;;;5091520;28;20649;-78
2023/01/16 10:28:12;;;;;;;1.13;0.90;;;;;;;;;;5073513;28;20188;-78
2023/01/16 10:30:47;;;;;;;0.90;0.70;;;;;;;;;;5079730;28;20172;-76
2023/01/16 10:33:12;;;;;;;0.90;0.90;;;;;;;;;;5065672;28;20187;-76
2023/01/16 10:35:39;;;;;;;1.67;1.00;;;;;;;;;;5089955;28;20663;-78
2023/01/16 10:38:16;;;;;;;1.53;0.80;;;;;;;;;;5074769;28;20676;-77
2023/01/16 10:40:42;;;;;;;0.70;0.60;;;;;;;;;;5074414;28;20207;-78
2023/01/16 10:51:27;;;;;;;1.93;0.60;;;;;;;;;;5091906;28;20224;-77
2023/01/16 10:53:53;;;;;;;1.00;0.90;;;;;;;;;;5092638;28;20180;-77
2023/01/16 10:56:18;;;;;;;2.70;0.93;;;;;;;;;;5091819;28;20620;-77
2023/01/16 10:58:43;;;;;;;0.60;0.53;;;;;;;;;;5107199;22;20282;-73
2023/01/16 11:01:14;;;;;;;0.90;0.67;;;;;;;;;;5111245;28;20219;-73
2023/01/16 11:03:45;;;;;;;2.77;0.97;;;;;;;;;;5111789;28;20171;-73
2023/01/16 11:06:17;;;;;;;1.00;0.67;;;;;;;;;;5109852;28;20171;-73
2023/01/16 11:08:43;;;;;;;3.30;1.07;;;;;;;;;;5106769;28;20208;-73
2023/01/16 11:18:28;;;;;;;1.00;0.70;;;;;;;;;;5089165;28;20318;-73
2023/01/16 11:19:26;;;;;;;1.20;0.70;;;;;;;;;;5091124;28;20199;-74
2023/01/16 11:21:53;;;;;;;1.50;0.67;;;;;;;;;;5088544;28;20207;-74
2023/01/16 11:24:21;;;;;;;1.57;0.67;;;;;;;;;;5091694;28;20188;-74
2023/01/16 11:26:50;;;;;;;1.47;0.70;;;;;;;;;;5091011;28;20184;-74
2023/01/16 11:29:16;;;;;;;0.97;0.83;;;;;;;;;;5084684;28;20246;-73
2023/01/16 11:31:48;;;;;;;0.87;0.40;;;;;;;;;;5072201;28;20275;-74
2023/01/16 11:34:14;;;;;;;1.90;0.53;;;;;;;;;;5083381;28;20189;-73
2023/01/16 11:36:40;;;;;;;0.53;0.47;;;;;;;;;;5064016;28;20180;-74
2023/01/16 11:39:06;;;;;;;0.60;0.47;;;;;;;;;;5088634;28;20275;-73
2023/01/16 11:41:33;;;;;;;0.90;0.50;;;;;;;;;;5085891;28;20188;-73
2023/01/16 11:47:01;;;;;;;0.60;0.50;;;;;;;;;;5077635;28;20678;-72
2023/01/16 11:49:33;;;;;;;0.80;0.70;;;;;;;;;;5080119;28;20205;-73
2023/01/16 11:52:02;;;;;;;0.50;0.50;;;;;;;;;;5076051;28;20565;-74
2023/01/16 11:54:29;;;;;;;0.60;0.40;;;;;;;;;;5065770;28;20180;-74
2023/01/16 11:56:55;;;;;;;0.83;0.47;;;;;;;;;;5075935;28;20188;-73
2023/01/16 11:59:38;;;;;;;1.00;0.50;;;;;;;;;;5075749;28;20209;-74
2023/01/16 12:02:39;;;;;;;0.90;0.50;;;;;;;;;;5096976;28;20215;-74
2023/01/16 12:08:04;;;;;;;1.93;0.70;;;;;;;;;;5092396;28;20191;-73
2023/01/16 12:10:46;;;;;;;0.30;0.30;;;;;;;;;;5074359;28;20193;-74
2023/01/16 12:16:01;;;;;;;0.27;0.27;;;;;;;;;;5092436;28;20320;-74
2023/01/16 12:18:29;;;;;;;0.30;0.30;;;;;;;;;;5100536;28;20183;-74
2023/01/16 12:21:01;;;;;;;0.40;0.40;;;;;;;;;;5093061;28;20200;-73
2023/01/16 12:23:35;;;;;;;1.13;0.67;;;;;;;;;;5080093;28;20172;-73
2023/01/16 12:26:00;;;;;;;0.70;0.40;;;;;;;;;;5081689;28;20183;-73
2023/01/16 12:28:40;;;;;;;0.97;0.57;;;;;;;;;;5097855;28;20258;-73
2023/01/16 12:31:31;;;;;;;1.17;0.50;;;;;;;;;;5086603;28;20187;-73
2023/01/16 12:34:15;;;;;;;1.20;1.00;;;;;;;;;;5085966;28;20266;-73
2023/01/16 12:37:00;;;;;;;2.00;0.60;;;;;;;;;;5084991;28;20204;-73
2023/01/16 12:39:41;;;;;;;0.90;0.60;;;;;;;;;;5075664;28;20191;-73
2023/01/16 12:44:57;;;;;;;0.50;0.50;;;;;;;;;;5087793;28;20187;-73
2023/01/16 12:47:22;;;;;;;1.37;0.63;;;;;;;;;;5090395;28;20180;-73
2023/01/16 12:50:08;;;;;;;1.77;0.40;;;;;;;;;;5091139;28;20194;-73
2023/01/16 12:52:45;;;;;;;1.00;0.60;;;;;;;;;;5059366;28;20762;-74
2023/01/16 12:55:22;;;;;;;0.87;0.70;;;;;;;;;;5080930;28;20656;-72
2023/01/16 12:58:11;;;;;;;1.60;1.20;;;;;;;;;;5097228;28;20176;-73
2023/01/16 13:00:40;;;;;;;2.40;0.87;;;;;;;;;;5093442;28;20201;-73
2023/01/16 13:03:08;;;;;;;0.93;0.83;;;;;;;;;;5096882;28;20190;-73
2023/01/16 13:05:34;;;;;;;1.17;0.90;;;;;;;;;;5074527;28;20673;-73
2023/01/16 13:08:02;;;;;;;2.30;0.87;;;;;;;;;;5093561;28;20184;-73
2023/01/16 13:13:26;;;;;;;1.07;0.70;;;;;;;;;;5091440;28;20230;-73
2023/01/16 13:15:57;;;;;;;1.60;0.87;;;;;;;;;;5091876;28;20176;-73
2023/01/16 13:18:26;;;;;;;1.17;0.70;;;;;;;;;;5090776;28;20175;-73
2023/01/16 13:20:53;;;;;;;1.13;0.70;;;;;;;;;;5097291;28;20623;-74
2023/01/16 13:23:27;;;;;;;1.10;0.80;;;;;;;;;;5090403;28;20173;-73
2023/01/16 13:25:57;;;;;;;1.00;0.70;;;;;;;;;;5089941;28;20221;-74
2023/01/16 13:28:29;;;;;;;1.70;0.70;;;;;;;;;;5090333;28;20172;-73
2023/01/16 13:30:56;;;;;;;2.10;0.90;;;;;;;;;;5090336;28;21236;-74
2023/01/16 13:33:24;;;;;;;2.33;0.57;;;;;;;;;;5090738;28;20215;-73
2023/01/16 13:35:56;;;;;;;0.50;0.50;;;;;;;;;;5094116;28;20204;-73
2023/01/16 13:38:39;;;;;;;0.87;0.70;;;;;;;;;;5090771;28;20165;-73
2023/01/16 13:41:11;;;;;;;1.53;0.93;;;;;;;;;;5089547;28;20693;-74
2023/01/16 13:46:26;;;;;;;1.00;0.80;;;;;;;;;;5087747;28;20663;-74
2023/01/16 13:48:53;;;;;;;0.67;0.60;;;;;;;;;;5084795;28;20208;-73
2023/01/16 13:51:20;;;;;;;0.83;0.67;;;;;;;;;;5072975;28;20598;-73
2023/01/16 13:53:50;;;;;;;0.87;0.60;;;;;;;;;;5071646;28;20212;-72
2023/01/16 13:56:18;;;;;;;1.90;1.30;;;;;;;;;;5057104;28;20191;-73
2023/01/16 13:58:45;;;;;;;2.40;1.13;;;;;;;;;;5054199;28;20570;-74
2023/01/16 14:01:28;;;;;;;1.50;1.00;;;;;;;;;;5075224;28;20287;-74
2023/01/16 14:04:12;;;;;;;1.33;1.10;;;;;;;;;;5070779;28;20173;-74
2023/01/16 14:09:03;;;;;;;0.80;0.80;;;;;;;;;;5089042;28;20185;-74
2023/01/16 14:09:55;;;;;;;1.37;1.10;;;;;;;;;;5084802;28;20708;-74
2023/01/16 14:12:21;;;;;;;1.33;0.90;;;;;;;;;;5095698;28;20270;-74
2023/01/16 14:17:50;;;;;;;1.10;1.00;;;;;;;;;;5082960;28;20277;-73
2023/01/16 14:20:37;;;;;;;0.80;0.80;;;;;;;;;;5087749;28;20234;-73
2023/01/16 14:25:49;;;;;;;1.40;0.87;;;;;;;;;;5080923;28;20672;-72
2023/01/16 14:28:18;;;;;;;1.00;0.90;;;;;;;;;;5074011;28;20192;-74
2023/01/16 14:30:45;;;;;;;2.80;1.20;;;;;;;;;;5088660;28;20263;-74
2023/01/16 14:33:16;;;;;;;1.30;1.13;;;;;;;;;;5098025;28;20191;-73
2023/01/16 14:35:44;;;;;;;1.10;1.00;;;;;;;;;;5089752;28;20599;-74
2023/01/16 14:38:14;;;;;;;2.03;0.80;;;;;;;;;;5080812;28;20236;-74
2023/01/16 14:57:37;;;;;;;0.90;0.80;;;;;;;;;;5099377;28;20187;-73
2023/01/16 15:00:12;;;;;;;2.43;1.00;;;;;;;;;;5094370;28;20684;-74
2023/01/16 15:02:43;;;;;;;1.93;1.40;;;;;;;;;;5065248;28;20629;-74
2023/01/16 15:05:08;;;;;;;3.37;1.30;;;;;;;;;;5095588;28;20177;-74
2023/01/16 15:07:41;;;;;;;2.67;1.30;;;;;;;;;;5094417;28;20263;-74
2023/01/16 15:10:10;;;;;;;2.13;1.53;;;;;;;;;;5090862;28;20196;-74
2023/01/16 15:12:40;;;;;;;1.30;1.20;;;;;;;;;;5096379;28;20233;-73
2023/01/16 15:15:15;;;;;;;1.37;1.17;;;;;;;;;;5088438;28;20181;-73
2023/01/16 15:23:16;;;;;;;1.70;1.43;;;;;;;;;;5097945;28;20575;-74
2023/01/16 15:25:50;;;;;;;1.97;1.40;;;;;;;;;;5099260;28;20168;-74
2023/01/16 15:28:37;;;;;;;2.30;1.37;;;;;;;;;;5103217;28;20183;-74
2023/01/16 15:31:06;;;;;;;1.43;1.33;;;;;;;;;;5090850;28;20189;-74
2023/01/16 15:33:50;;;;;;;1.97;1.73;;;;;;;;;;5092008;28;20262;-73
2023/01/16 15:36:51;;;;;;;1.47;1.33;;;;;;;;;;5101078;28;20179;-74
2023/01/16 15:39:26;;;;;;;1.60;1.50;;;;;;;;;;5024190;28;20280;-74
2023/01/16 15:47:28;;;;;;;2.00;1.80;;;;;;;;;;5089333;28;20218;-74
2023/01/16 15:49:59;;;;;;;2.10;1.90;;;;;;;;;;5089397;28;20203;-74
2023/01/16 15:52:32;;;;;;;3.00;2.23;;;;;;;;;;5074142;28;20181;-74
2023/01/16 15:54:57;;;;;;;2.47;2.27;;;;;;;;;;5098786;28;20172;-74
2023/01/16 15:57:23;;;;;;;4.00;2.80;;;;;;;;;;5101339;28;20199;-73
2023/01/16 15:59:52;;;;;;;2.90;2.30;;;;;;;;;;5091133;28;20612;-74
2023/01/16 16:02:17;;;;;;;3.93;2.67;;;;;;;;;;5092746;28;20257;-74
2023/01/16 16:04:44;;;;;;;3.57;2.23;;;;;;;;;;5100080;28;20593;-74
2023/01/16 16:07:10;;;;;;;3.27;2.87;;;;;;;;;;5088546;28;20179;-74
2023/01/16 16:09:36;;;;;;;2.63;2.40;;;;;;;;;;5101933;28;20196;-74
2023/01/16 16:12:04;;;;;;;3.10;2.80;;;;;;;;;;5099117;28;20321;-74
2023/01/16 16:20:21;;;;;;;3.27;2.97;;;;;;;;;;5095255;28;20709;-74
2023/01/16 16:22:49;;;;;;;5.40;3.70;;;;;;;;;;5087983;28;20182;-74
2023/01/16 16:25:21;;;;;;;5.27;3.90;;;;;;;;;;5083458;28;20184;-74
2023/01/16 16:27:46;;;;;;;4.47;3.90;;;;;;;;;;5093348;28;20168;-74
2023/01/16 16:30:23;;;;;;;6.63;4.30;;;;;;;;;;5089491;28;20638;-75